Chesapeake, VA

08:07 AM EDT on Augusto 21, 2014 (GMT -0400)
South Greenbrier | Change Station
CLOSE
Current Station
Personal Weather Stations
Location: Chesapeake, VA
Elevation: 33 ft
Nearby Weather Stations

Elev 33 ft 36.74 °N, 76.22 °W | Updated 29 seconds ago

Mostly Cloudy
Mostly Cloudy
75.5 °F
Feels Like 74 °F
N
0.0
Hangin Variable Hangin from SE
Gusts 1.0 mph

Ngayon
High -- | Low -- °F
--% Chance of Precip.
Yesterday
High -- | Low -- °F
Precip. -- sa
6:27 AM 7:48 PM
Waning Crescent, 14% visible
Pwersa 30.03 sa
Paningin 8.0 milya
Mga Ulap Mostly Cloudy 400 ft
HeatIndex 74 °F
Hamog 74 °F
Humidito 96%
Rainfall 0.00 sa
Snow Depth Not available.
UV 1 out of 12
Pollen 8.60 out of 12
Ozone Mabuti
PM2.5 Mabuti
Flu Activity Not available.
SPECI KNFE 211203Z AUTO 18004KT 8SM BKN004 27/24 A3003 RMK AO2 T02670239

More Conditions Fewer Conditions

Pwersa 30.03 sa
Paningin 8.0 milya
Mga Ulap Mostly Cloudy 400 ft
HeatIndex 74 °F
Hamog 74 °F
Humidito 96%
Rainfall 0.00 sa
Snow Depth Not available.
UV 1 out of 12
Pollen 8.60 out of 12
Ozone Mabuti
PM2.5 Mabuti
Flu Activity Not available.
SPECI KNFE 211203Z AUTO 18004KT 8SM BKN004 27/24 A3003 RMK AO2 T02670239

More Conditions Fewer Conditions

10-Day Weather Forecast

Almanac

Astronomiya

Aug. 21, 2014 Rise Set
Actual Time 6:27 AM EDT 7:48 PM EDT
Civil Twilight 5:59 AM EDT 8:15 PM EDT
Nautical Twilight 5:27 AM EDT 8:47 PM EDT
Astronomical Twilight 4:53 AM EDT 9:21 PM EDT
Buwan 2:58 AM EDT 5:13 PM EDT
Length Of Visible Light 14h 15m
Haba ng Araw
13h 21m
Tomorrow will be 2m 8s shorter.
Waning Crescent, 14% of the Moon is Illuminated
Ngayon
Waning Crescent
Aug 25
New
Sep 2
Unang Quarter
Sep 8
Kabilugan ng Buwan
Sep 15
Last Quarter

Today's Extremes

State Highs State Lows

Community

WunderPhotos

Upload Photos

1,745,882 photos uploaded!

Nearby

Air Quality

  Air Quality AQ Index Pollutant
Yesterday Mabuti
OZONE
Yesterday Mabuti
PM2.5
Current Mabuti
PM2.5
Current Mabuti
OZONE
Huwebes Katamtaman
OZONE
Huwebes Mabuti
PM2.5

Snow Depth

Station Depth Elevation
No new snow has been reported.

Earthquake Activity

Siyudad Distance Mag. Time & Date
No recent earthquake activity has been reported nearby.
Minimum magnitude displayed is 2.5.

Coastal Water Temperatures

lugar Temparatura
Chesapeake Bay Bridge Tunnel, VA 78.1 °F
Kiptopeke, VA 81.0 °F
Money Point, VA 82.9 °F
Sewells Point, VA 79.0 °F

Nearby Weather Stations